createdAt,value
2022-08-24T00:03:00.968Z,101584.84
2022-08-24T00:06:05.162Z,101581.91
2022-08-24T00:09:09.133Z,101577.97
2022-08-24T00:12:11.832Z,101575.25
2022-08-24T00:15:18.233Z,101572.28
2022-08-24T00:18:20.825Z,101581.78
2022-08-24T00:21:23.641Z,101576.63
2022-08-24T00:24:28.220Z,101574.84
2022-08-24T00:27:30.896Z,101577.63
2022-08-24T00:30:35.265Z,101582.00
2022-08-24T00:33:38.418Z,101583.56
2022-08-24T00:36:42.950Z,101582.72
2022-08-24T00:39:46.934Z,101584.66
2022-08-24T00:42:50.659Z,101579.44
2022-08-24T00:46:06.047Z,101576.53
2022-08-24T00:49:13.210Z,101579.53
2022-08-24T00:52:20.401Z,101582.09
2022-08-24T00:55:28.940Z,101584.03
2022-08-24T00:58:36.807Z,101581.28
2022-08-24T01:01:42.966Z,101585.97
2022-08-24T01:04:50.479Z,101577.66
2022-08-24T01:07:53.510Z,101583.66
2022-08-24T01:11:02.158Z,101588.72
2022-08-24T01:14:06.084Z,101589.91
2022-08-24T01:17:26.448Z,101582.22
2022-08-24T01:20:29.145Z,101584.72
2022-08-24T01:23:39.569Z,101577.22
2022-08-24T01:26:46.933Z,101584.22
2022-08-24T01:29:51.063Z,101584.50
2022-08-24T01:32:55.422Z,101580.88
2022-08-24T01:36:02.024Z,101583.25
2022-08-24T01:39:12.175Z,101593.59
2022-08-24T01:42:15.328Z,101585.16
2022-08-24T01:45:20.130Z,101586.38
2022-08-24T01:48:23.630Z,101588.41
2022-08-24T01:51:29.900Z,101577.63
2022-08-24T01:54:34.178Z,101578.28
2022-08-24T01:57:36.757Z,101582.88
2022-08-24T02:00:39.686Z,101589.94
2022-08-24T02:03:42.260Z,101587.31
2022-08-24T02:06:45.660Z,101590.69
2022-08-24T02:09:49.775Z,101591.75
2022-08-24T02:12:58.612Z,101598.22
2022-08-24T02:16:01.395Z,101597.56
2022-08-24T02:19:04.186Z,101589.88
2022-08-24T02:22:07.322Z,101602.59
2022-08-24T02:25:11.387Z,101599.81
2022-08-24T02:28:16.986Z,101594.53
2022-08-24T02:31:19.600Z,101593.13
2022-08-24T02:34:22.441Z,101599.53
2022-08-24T02:37:25.001Z,101599.03
2022-08-24T02:40:29.747Z,101610.25
2022-08-24T02:43:32.491Z,101610.69
2022-08-24T02:46:42.630Z,101609.59
2022-08-24T02:49:45.621Z,101609.72
2022-08-24T02:52:48.612Z,101602.06
2022-08-24T02:55:53.022Z,101605.72
2022-08-24T02:58:55.626Z,101605.63
2022-08-24T03:01:58.456Z,101606.28
2022-08-24T03:05:01.555Z,101607.34
2022-08-24T03:08:05.126Z,101606.03
2022-08-24T03:11:09.393Z,101613.16
2022-08-24T03:14:12.266Z,101603.66
2022-08-24T03:17:14.898Z,101605.59
2022-08-24T03:20:21.121Z,101607.94
2022-08-24T03:23:24.580Z,101605.00
2022-08-24T03:26:28.789Z,101611.91
2022-08-24T03:29:33.703Z,101615.25
2022-08-24T03:32:36.573Z,101611.59
2022-08-24T03:35:39.665Z,101615.59
2022-08-24T03:38:42.691Z,101617.69
2022-08-24T03:41:46.661Z,101616.94
2022-08-24T03:44:49.238Z,101609.28
2022-08-24T03:47:52.542Z,101611.13
2022-08-24T03:50:55.702Z,101607.88
2022-08-24T03:54:00.705Z,101605.03
2022-08-24T03:57:04.784Z,101609.75
2022-08-24T04:00:11.662Z,101606.81
2022-08-24T04:03:15.225Z,101608.63
2022-08-24T04:06:19.951Z,101609.59
2022-08-24T04:09:22.524Z,101620.97
2022-08-24T04:12:26.533Z,101623.34
2022-08-24T04:15:31.622Z,101626.44
2022-08-24T04:18:34.303Z,101635.03
2022-08-24T04:21:38.116Z,101639.38
2022-08-24T04:24:40.741Z,101633.88
2022-08-24T04:27:44.697Z,101646.03
2022-08-24T04:30:50.344Z,101646.06
2022-08-24T04:33:53.994Z,101646.03
2022-08-24T04:36:56.771Z,101653.13
2022-08-24T04:39:59.475Z,101642.94
2022-08-24T04:43:03.661Z,101646.78
2022-08-24T04:46:08.395Z,101640.91
2022-08-24T04:49:11.407Z,101634.66
2022-08-24T04:52:13.985Z,101638.84
2022-08-24T04:55:16.646Z,101643.13
2022-08-24T04:58:20.673Z,101632.81
2022-08-24T05:01:25.303Z,101638.31
2022-08-24T05:04:27.943Z,101640.50
2022-08-24T05:07:32.157Z,101641.00
2022-08-24T05:10:34.810Z,101650.03
2022-08-24T05:13:39.136Z,101636.91
2022-08-24T05:16:52.431Z,101638.63
2022-08-24T05:19:55.520Z,101641.03
2022-08-24T05:23:02.514Z,101637.72
2022-08-24T05:26:08.149Z,101646.88
2022-08-24T05:29:12.446Z,101654.66
2022-08-24T05:32:15.202Z,101663.91
2022-08-24T05:35:17.901Z,101676.47
2022-08-24T05:38:20.497Z,101664.09
2022-08-24T05:41:23.878Z,101666.41
2022-08-24T05:44:31.142Z,101668.53
2022-08-24T05:47:34.604Z,101678.53
2022-08-24T05:50:37.822Z,101679.97
2022-08-24T05:53:41.619Z,101682.88
2022-08-24T05:56:44.709Z,101685.06
2022-08-24T05:59:48.798Z,101689.25
2022-08-24T06:02:52.819Z,101689.28
2022-08-24T06:05:55.942Z,101681.72
2022-08-24T06:09:00.344Z,101691.66
2022-08-24T06:12:03.398Z,101687.94
2022-08-24T06:15:08.242Z,101688.59
2022-08-24T06:18:11.002Z,101692.97
2022-08-24T06:21:16.983Z,101685.69
2022-08-24T06:24:40.947Z,101694.75
2022-08-24T06:27:42.645Z,101690.88
2022-08-24T06:30:46.602Z,101695.31
2022-08-24T06:33:49.255Z,101699.41
2022-08-24T06:36:52.749Z,101697.59
2022-08-24T06:39:58.113Z,101697.78
2022-08-24T06:43:04.293Z,101707.38
2022-08-24T06:46:08.567Z,101709.88
2022-08-24T06:49:11.238Z,101708.06
2022-08-24T06:52:13.885Z,101711.78
2022-08-24T06:55:16.594Z,101710.66
2022-08-24T06:58:19.532Z,101710.38
2022-08-24T07:01:25.735Z,101711.94
2022-08-24T07:04:28.934Z,101713.28
2022-08-24T07:07:31.537Z,101719.31
2022-08-24T07:10:34.690Z,101713.88
2022-08-24T07:13:37.379Z,101721.41
2022-08-24T07:16:41.309Z,101711.59
2022-08-24T07:19:43.877Z,101718.47
2022-08-24T07:22:46.641Z,101720.66
2022-08-24T07:25:54.217Z,101724.34
2022-08-24T07:29:05.344Z,101731.03
2022-08-24T07:32:10.105Z,101726.91
2022-08-24T07:35:12.716Z,101732.47
2022-08-24T07:38:15.343Z,101725.25
2022-08-24T07:41:40.384Z,101733.50
2022-08-24T07:44:40.789Z,101741.13
2022-08-24T07:47:54.677Z,101737.97
2022-08-24T07:50:59.578Z,101734.81
2022-08-24T07:54:03.655Z,101735.75
2022-08-24T07:57:09.919Z,101741.91
2022-08-24T08:00:16.957Z,101739.19
2022-08-24T08:03:21.789Z,101739.03
2022-08-24T08:06:24.382Z,101736.53
2022-08-24T08:09:27.022Z,101737.06
2022-08-24T08:12:29.636Z,101740.66
2022-08-24T08:15:32.860Z,101739.47
2022-08-24T08:18:37.094Z,101736.56
2022-08-24T08:22:00.288Z,101738.00
2022-08-24T08:25:02.896Z,101744.81
2022-08-24T08:28:18.459Z,101739.94
2022-08-24T08:31:28.245Z,101741.97
2022-08-24T08:34:32.347Z,101746.44
2022-08-24T08:40:57.036Z,101733.56
2022-08-24T08:44:04.754Z,101741.75
2022-08-24T08:47:23.309Z,101747.00
2022-08-24T08:50:32.682Z,101750.00
2022-08-24T08:54:06.653Z,101753.00
2022-08-24T08:57:51.209Z,101756.09
2022-08-24T09:01:05.148Z,101749.13
2022-08-24T09:04:22.864Z,101744.38
2022-08-24T09:07:43.747Z,101748.22
2022-08-24T09:10:56.639Z,101745.78
2022-08-24T09:14:36.130Z,101742.78
2022-08-24T09:18:04.714Z,101735.03
2022-08-24T09:21:24.012Z,101742.00
2022-08-24T09:24:42.037Z,101735.69
2022-08-24T09:28:00.641Z,101738.59
2022-08-24T09:31:22.916Z,101728.41
2022-08-24T09:34:39.941Z,101732.75
2022-08-24T09:37:58.779Z,101732.16
2022-08-24T09:41:25.080Z,101730.91
2022-08-24T09:44:48.173Z,101725.16
2022-08-24T09:48:09.502Z,101725.50
2022-08-24T09:51:46.948Z,101726.66
2022-08-24T09:55:26.670Z,101717.06
2022-08-24T09:58:50.397Z,101714.19
2022-08-24T10:02:14.197Z,101720.25
2022-08-24T10:05:27.820Z,101720.44
2022-08-24T10:08:45.298Z,101728.00
2022-08-24T10:11:56.214Z,101721.47
2022-08-24T10:15:06.330Z,101713.38
2022-08-24T10:18:38.623Z,101700.97
2022-08-24T10:21:54.082Z,101704.69
2022-08-24T10:25:10.410Z,101705.69
2022-08-24T10:28:39.989Z,101707.75
2022-08-24T10:32:01.034Z,101697.84
2022-08-24T10:35:09.429Z,101700.75
2022-08-24T10:38:57.725Z,101689.56
2022-08-24T10:42:54.573Z,101697.00
2022-08-24T10:46:24.085Z,101695.13
2022-08-24T10:50:20.180Z,101687.16
2022-08-24T10:53:27.355Z,101699.13
2022-08-24T10:56:39.882Z,101695.19
2022-08-24T10:59:54.938Z,101690.41
2022-08-24T11:03:11.946Z,101692.56
2022-08-24T11:06:16.315Z,101680.22
2022-08-24T11:09:20.272Z,101689.91
2022-08-24T11:12:27.370Z,101691.19
2022-08-24T11:15:29.977Z,101683.78
2022-08-24T11:18:49.373Z,101685.75
2022-08-24T11:21:53.768Z,101691.94
2022-08-24T11:25:00.211Z,101693.81
2022-08-24T11:28:09.568Z,101681.94
2022-08-24T11:31:14.306Z,101683.88
2022-08-24T11:34:19.165Z,101692.97
2022-08-24T11:37:29.126Z,101690.91
2022-08-24T11:40:40.750Z,101692.38
2022-08-24T11:43:58.926Z,101688.97
2022-08-24T11:47:11.563Z,101692.47
2022-08-24T11:50:25.581Z,101686.16
2022-08-24T11:57:00.025Z,101686.16
2022-08-24T12:00:07.333Z,101689.06
2022-08-24T12:03:28.190Z,101681.94
2022-08-24T12:06:43.081Z,101685.53
2022-08-24T12:10:00.725Z,101674.34
2022-08-24T12:13:11.698Z,101675.09
2022-08-24T12:16:22.263Z,101671.94
2022-08-24T12:19:29.688Z,101679.78
2022-08-24T12:22:33.546Z,101667.91
2022-08-24T12:25:53.692Z,101675.41
2022-08-24T12:29:03.636Z,101674.19
2022-08-24T12:32:11.190Z,101663.50
2022-08-24T12:35:19.390Z,101662.81
2022-08-24T12:38:26.897Z,101662.91
2022-08-24T12:41:34.338Z,101659.13
2022-08-24T12:44:46.769Z,101661.75
2022-08-24T12:47:55.006Z,101660.50
2022-08-24T12:51:11.943Z,101664.53
2022-08-24T12:54:40.389Z,101666.03
2022-08-24T12:57:55.052Z,101667.00
2022-08-24T13:01:06.061Z,101667.88
2022-08-24T13:04:16.478Z,101662.81
2022-08-24T13:07:30.762Z,101662.06
2022-08-24T13:10:42.194Z,101650.75
2022-08-24T13:14:05.452Z,101666.88
2022-08-24T13:17:13.498Z,101665.56
2022-08-24T13:20:21.296Z,101667.72
2022-08-24T13:23:24.963Z,101666.41
2022-08-24T13:26:27.668Z,101666.00
2022-08-24T13:29:35.492Z,101667.50
2022-08-24T13:32:44.281Z,101663.03
2022-08-24T13:36:16.695Z,101654.09
2022-08-24T13:39:40.381Z,101660.84
2022-08-24T13:43:03.981Z,101656.84
2022-08-24T13:46:20.116Z,101658.06
2022-08-24T13:49:38.820Z,101656.91
2022-08-24T13:53:04.848Z,101649.28
2022-08-24T13:56:32.597Z,101647.34
2022-08-24T13:59:56.852Z,101644.00
2022-08-24T14:03:14.983Z,101644.31
2022-08-24T14:06:28.480Z,101648.63
2022-08-24T14:09:41.975Z,101645.25
2022-08-24T14:13:07.635Z,101638.56
2022-08-24T14:16:43.777Z,101635.88
2022-08-24T14:20:02.166Z,101647.16
2022-08-24T14:23:17.835Z,101649.78
2022-08-24T14:27:01.957Z,101638.34
2022-08-24T14:30:39.659Z,101632.31
2022-08-24T14:33:50.626Z,101635.50
2022-08-24T14:36:59.769Z,101637.59
2022-08-24T14:40:17.944Z,101638.38
2022-08-24T14:43:30.981Z,101640.63
2022-08-24T14:46:41.582Z,101634.31
2022-08-24T14:49:58.405Z,101634.53
2022-08-24T14:53:18.812Z,101634.63
2022-08-24T14:56:43.914Z,101623.78
2022-08-24T14:59:58.613Z,101624.50
2022-08-24T15:03:25.810Z,101619.69
2022-08-24T15:06:38.439Z,101623.47
2022-08-24T15:09:44.887Z,101618.69
2022-08-24T15:12:59.039Z,101617.63
2022-08-24T15:16:11.730Z,101622.13
2022-08-24T15:19:23.007Z,101617.66
2022-08-24T15:22:40.959Z,101611.88
2022-08-24T15:25:51.144Z,101606.00
2022-08-24T15:28:56.951Z,101613.53
2022-08-24T15:32:05.055Z,101615.22
2022-08-24T15:35:08.057Z,101615.63
2022-08-24T15:38:22.288Z,101611.81
2022-08-24T15:41:31.025Z,101613.91
2022-08-24T15:44:36.725Z,101604.22
2022-08-24T15:47:41.651Z,101598.09
2022-08-24T15:50:48.977Z,101598.94
2022-08-24T15:53:51.601Z,101601.84
2022-08-24T15:56:57.428Z,101612.66
2022-08-24T16:00:12.697Z,101603.59
2022-08-24T16:03:21.453Z,101605.38
2022-08-24T16:06:27.682Z,101607.81
2022-08-24T16:09:37.573Z,101604.25
2022-08-24T16:12:40.574Z,101599.44
2022-08-24T16:15:51.223Z,101607.53
2022-08-24T16:18:58.007Z,101602.72
2022-08-24T16:22:03.826Z,101609.13
2022-08-24T16:25:15.769Z,101611.19
2022-08-24T16:28:35.703Z,101613.31
2022-08-24T16:31:51.767Z,101612.63
2022-08-24T16:34:56.849Z,101614.22
2022-08-24T16:37:59.543Z,101614.63
2022-08-24T16:41:04.055Z,101621.59
2022-08-24T16:44:06.705Z,101615.63
2022-08-24T16:47:11.230Z,101625.66
2022-08-24T16:50:15.031Z,101619.25
2022-08-24T16:53:17.686Z,101623.75
2022-08-24T16:56:20.390Z,101622.44
2022-08-24T16:59:27.469Z,101624.53
2022-08-24T17:02:31.494Z,101623.75
2022-08-24T17:05:34.717Z,101613.59
2022-08-24T17:08:37.390Z,101616.03
2022-08-24T17:11:40.361Z,101614.97
2022-08-24T17:14:44.308Z,101615.72
2022-08-24T17:17:56.117Z,101615.09
2022-08-24T17:21:01.234Z,101616.00
2022-08-24T17:24:04.366Z,101620.56
2022-08-24T17:27:07.198Z,101627.00
2022-08-24T17:30:11.306Z,101623.56
2022-08-24T17:33:15.236Z,101623.19
2022-08-24T17:36:21.219Z,101629.28
2022-08-24T17:39:26.736Z,101624.13
2022-08-24T17:42:49.525Z,101639.56
2022-08-24T17:45:53.177Z,101644.63
2022-08-24T17:48:57.796Z,101640.81
2022-08-24T17:52:00.611Z,101636.72
2022-08-24T17:55:03.229Z,101641.06
2022-08-24T17:58:05.833Z,101640.13
2022-08-24T18:01:08.452Z,101642.44
2022-08-24T18:04:12.629Z,101651.66
2022-08-24T18:07:35.864Z,101650.09
2022-08-24T18:10:42.523Z,101658.53
2022-08-24T18:13:45.109Z,101665.59
2022-08-24T18:16:54.014Z,101661.06
2022-08-24T18:20:01.070Z,101658.50
2022-08-24T18:23:03.931Z,101671.41
2022-08-24T18:26:09.320Z,101672.00
2022-08-24T18:29:15.746Z,101675.97
2022-08-24T18:32:18.337Z,101672.69
2022-08-24T18:35:22.796Z,101683.13
2022-08-24T18:38:26.704Z,101677.13
2022-08-24T18:41:35.682Z,101692.00
2022-08-24T18:44:39.405Z,101694.28
2022-08-24T18:47:42.323Z,101705.66
2022-08-24T18:50:46.255Z,101700.47
2022-08-24T18:53:49.214Z,101705.41
2022-08-24T18:56:52.250Z,101702.44
2022-08-24T18:59:55.038Z,101705.41
2022-08-24T19:03:02.221Z,101705.81
2022-08-24T19:06:07.296Z,101710.72
2022-08-24T19:09:09.929Z,101707.69
2022-08-24T19:12:13.169Z,101704.44
2022-08-24T19:15:31.923Z,101702.38
2022-08-24T19:18:39.313Z,101705.63
2022-08-24T19:21:43.321Z,101702.47
2022-08-24T19:24:47.034Z,101714.31
2022-08-24T19:27:53.678Z,101709.16
2022-08-24T19:30:58.086Z,101705.78
2022-08-24T19:34:03.535Z,101715.88
2022-08-24T19:37:07.894Z,101712.19
2022-08-24T19:40:11.472Z,101710.25
2022-08-24T19:43:14.910Z,101712.28
2022-08-24T19:46:17.915Z,101720.66
2022-08-24T19:49:20.850Z,101723.34
2022-08-24T19:52:25.115Z,101725.09
2022-08-24T19:55:28.029Z,101729.66
2022-08-24T19:58:38.048Z,101727.31
2022-08-24T20:01:40.711Z,101733.06
2022-08-24T20:04:43.319Z,101737.25
2022-08-24T20:07:47.745Z,101741.47
2022-08-24T20:10:52.851Z,101742.72
2022-08-24T20:13:55.517Z,101737.78
2022-08-24T20:16:58.136Z,101741.00
2022-08-24T20:20:02.148Z,101741.50
2022-08-24T20:23:07.157Z,101744.72
2022-08-24T20:26:11.936Z,101746.44
2022-08-24T20:29:15.106Z,101752.50
2022-08-24T20:32:18.579Z,101755.03
2022-08-24T20:35:21.229Z,101749.63
2022-08-24T20:38:25.727Z,101761.44
2022-08-24T20:41:35.377Z,101756.53
2022-08-24T20:44:37.948Z,101752.81
2022-08-24T20:47:44.878Z,101757.75
2022-08-24T20:50:47.650Z,101765.16
2022-08-24T20:53:51.593Z,101757.75
2022-08-24T20:56:54.220Z,101751.81
2022-08-24T20:59:56.781Z,101752.94
2022-08-24T21:02:59.411Z,101757.72
2022-08-24T21:06:02.571Z,101751.72
2022-08-24T21:09:07.361Z,101757.72
2022-08-24T21:12:16.700Z,101758.22
2022-08-24T21:15:20.846Z,101754.50
2022-08-24T21:18:23.404Z,101747.88
2022-08-24T21:21:28.435Z,101763.22
2022-08-24T21:24:32.362Z,101756.44
2022-08-24T21:27:41.566Z,101753.97
2022-08-24T21:30:44.177Z,101750.16
2022-08-24T21:34:04.398Z,101753.19
2022-08-24T21:37:07.216Z,101756.38
2022-08-24T21:40:12.428Z,101756.50
2022-08-24T21:43:17.860Z,101761.19
2022-08-24T21:46:21.964Z,101749.97
2022-08-24T21:49:25.030Z,101757.56
2022-08-24T21:52:27.693Z,101759.56
2022-08-24T21:55:31.652Z,101761.41
2022-08-24T21:58:34.295Z,101770.63
2022-08-24T22:01:38.672Z,101774.53
2022-08-24T22:04:41.473Z,101768.88
2022-08-24T22:07:44.388Z,101770.97
2022-08-24T22:10:50.205Z,101768.38
2022-08-24T22:13:53.919Z,101764.41
2022-08-24T22:16:56.511Z,101760.50
2022-08-24T22:19:59.106Z,101758.78
2022-08-24T22:23:01.710Z,101753.59
2022-08-24T22:26:06.645Z,101746.59
2022-08-24T22:29:11.115Z,101759.84
2022-08-24T22:32:13.719Z,101759.00
2022-08-24T22:35:16.365Z,101757.91
2022-08-24T22:38:19.439Z,101751.25
2022-08-24T22:41:23.683Z,101746.72
2022-08-24T22:44:27.686Z,101746.47
2022-08-24T22:47:31.677Z,101746.47
2022-08-24T22:50:34.295Z,101737.81
2022-08-24T22:53:37.012Z,101733.53
2022-08-24T22:56:43.593Z,101745.25
2022-08-24T22:59:46.210Z,101743.16
2022-08-24T23:02:48.772Z,101741.78
2022-08-24T23:05:51.318Z,101744.56
2022-08-24T23:08:53.965Z,101742.72
2022-08-24T23:11:58.239Z,101750.22
2022-08-24T23:15:01.315Z,101740.25
2022-08-24T23:18:23.884Z,101743.75
2022-08-24T23:21:25.955Z,101746.34
2022-08-24T23:24:30.352Z,101746.22
2022-08-24T23:27:38.408Z,101747.63
2022-08-24T23:30:41.516Z,101752.00
2022-08-24T23:33:44.206Z,101744.88
2022-08-24T23:36:46.965Z,101743.44
2022-08-24T23:39:49.574Z,101740.47
2022-08-24T23:42:53.504Z,101743.38
2022-08-24T23:45:56.509Z,101747.69
2022-08-24T23:49:03.327Z,101744.75
2022-08-24T23:52:06.463Z,101746.28
2022-08-24T23:55:20.889Z,101748.25
2022-08-24T23:58:26.192Z,101744.47
